CDT,Max TemperatureF,Mean TemperatureF,Min TemperatureF,Max Dew PointF,MeanDew PointF,Min DewpointF,Max Humidity, Mean Humidity, Min Humidity, Max Sea Level PressureIn, Mean Sea Level PressureIn, Min Sea Level PressureIn, Max VisibilityMiles, Mean VisibilityMiles, Min VisibilityMiles, Max Wind SpeedMPH, Mean Wind SpeedMPH, Max Gust SpeedMPH,PrecipitationIn, CloudCover, Events, WindDirDegrees
2012-9-1,86,78,69,73,69,66,94,80,55,30.21,30.14,30.08,10,9,2,10,1,16,0.40,3,Rain-Thunderstorm,197
2012-9-2,86,77,68,70,67,63,94,77,55,30.10,30.01,29.92,10,8,0,17,3,23,0.28,5,Fog-Rain-Thunderstorm,223
2012-9-3,75,72,69,70,68,66,94,90,83,29.99,29.94,29.91,10,6,1,7,2,,1.89,8,Rain-Thunderstorm,219
2012-9-4,80,76,71,72,70,68,94,86,65,29.94,29.91,29.89,10,7,2,6,0,,0.01,7,,167
2012-9-5,86,78,71,70,68,64,94,78,48,29.98,29.93,29.87,10,8,2,6,1,16,0.05,6,,198
2012-9-6,87,78,68,72,67,63,94,73,43,30.01,29.96,29.89,10,10,5,7,1,,0.00,2,,349
2012-9-7,89,76,64,68,65,61,94,71,40,30.01,29.93,29.84,10,8,1,7,1,,0.00,1,,228
2012-9-8,77,68,59,70,64,55,94,81,65,29.96,29.87,29.81,10,8,2,14,2,18,0.00,4,Rain,333
2012-9-9,78,64,51,55,52,45,94,70,32,30.08,30.00,29.93,10,9,3,13,2,24,0.00,0,,15
2012-9-10,80,66,51,59,52,45,94,69,28,30.15,30.11,30.06,10,10,7,8,1,,0.00,1,,15
2012-9-11,82,68,55,61,54,46,94,70,30,30.26,30.20,30.13,10,10,7,8,2,,0.00,3,,104
2012-9-12,80,68,55,59,55,46,94,72,32,30.33,30.27,30.22,10,10,7,9,1,,0.00,4,,108
2012-9-13,80,68,57,59,54,46,94,66,32,30.33,30.27,30.21,10,10,7,9,2,,0.00,2,,100
2012-9-14,78,66,55,63,58,54,94,75,47,30.27,30.23,30.18,10,10,7,7,1,,0.00,4,,86
2012-9-15,82,68,53,63,56,50,94,72,32,30.22,30.16,30.11,10,9,3,7,1,,0.00,1,,49
2012-9-16,82,72,62,64,61,59,88,72,45,30.12,30.07,30.02,10,9,7,5,0,,0.00,3,,216
2012-9-17,80,74,68,70,65,63,94,81,54,30.04,29.90,29.75,10,9,0,9,2,18,2.51,7,Rain-Thunderstorm,199
2012-9-18,77,65,53,66,60,52,94,82,57,30.02,29.84,29.72,10,9,2,13,6,20,1.24,6,Rain-Thunderstorm,323
2012-9-19,75,60,44,54,47,37,94,70,27,30.11,30.07,30.01,10,7,0,9,1,,0.00,1,Fog,57
2012-9-20,78,62,46,59,51,41,94,75,28,30.13,30.09,30.04,10,10,7,6,1,,0.00,1,,161
2012-9-21,80,66,51,59,53,45,94,71,28,30.10,30.05,29.97,10,9,5,12,1,16,0.00,0,,230
2012-9-22,82,68,51,61,54,45,94,69,30,30.12,30.05,30.00,10,9,5,16,3,23,0.00,1,,272
2012-9-23,75,60,44,50,42,28,94,64,18,30.22,30.17,30.12,10,10,10,13,2,,0.00,0,,357
2012-9-24,73,55,37,50,39,32,93,65,22,30.25,30.19,30.13,10,10,10,7,1,,0.00,0,,47
2012-9-25,78,62,46,57,48,43,94,65,28,30.21,30.16,30.13,10,10,10,9,1,,0.00,0,,197
2012-9-26,82,66,51,61,55,50,94,73,32,30.21,30.17,30.13,10,10,7,10,1,,0.00,1,,226
2012-9-27,86,70,55,64,57,52,94,73,33,30.22,30.16,30.10,10,9,4,8,1,,0.00,2,,241
2012-9-28,84,72,59,63,59,54,94,73,35,30.15,30.08,30.01,10,8,2,9,1,,0.00,0,,268
2012-9-29,77,68,59,66,62,55,94,81,54,30.05,29.98,29.92,10,8,3,7,1,,0.01,3,Rain,344
2012-9-30,71,61,51,63,58,50,94,86,64,29.94,29.86,29.75,10,6,0,7,2,,0.59,4,Fog-Rain,56